createdAt,value
2022-09-26T00:02:58.733Z,11.70
2022-09-26T00:07:42.237Z,11.70
2022-09-26T00:12:27.096Z,11.70
2022-09-26T00:17:12.001Z,11.70
2022-09-26T00:21:55.496Z,11.70
2022-09-26T00:26:39.512Z,11.80
2022-09-26T00:31:26.927Z,11.80
2022-09-26T00:36:10.925Z,11.70
2022-09-26T00:40:54.376Z,11.70
2022-09-26T00:45:37.901Z,11.80
2022-09-26T00:50:26.493Z,11.80
2022-09-26T00:55:14.358Z,11.80
2022-09-26T01:00:01.644Z,11.80
2022-09-26T01:04:46.966Z,11.80
2022-09-26T01:09:33.350Z,11.70
2022-09-26T01:14:17.063Z,11.60
2022-09-26T01:19:01.180Z,11.70
2022-09-26T01:24:13.789Z,11.70
2022-09-26T01:29:19.394Z,11.60
2022-09-26T01:34:14.375Z,11.60
2022-09-26T01:39:09.532Z,11.60
2022-09-26T01:44:01.191Z,11.60
2022-09-26T01:48:48.735Z,11.50
2022-09-26T01:53:41.498Z,11.50
2022-09-26T01:58:29.535Z,11.50
2022-09-26T02:03:16.871Z,11.50
2022-09-26T02:08:04.910Z,11.50
2022-09-26T02:12:56.216Z,11.50
2022-09-26T02:17:43.077Z,11.40
2022-09-26T02:22:29.184Z,11.40
2022-09-26T02:27:12.538Z,11.40
2022-09-26T02:32:03.203Z,11.50
2022-09-26T02:36:46.863Z,11.50
2022-09-26T02:41:38.752Z,11.40
2022-09-26T02:46:51.585Z,11.40
2022-09-26T02:51:56.488Z,11.40
2022-09-26T02:56:50.263Z,11.40
2022-09-26T03:01:42.304Z,11.20
2022-09-26T03:06:29.563Z,11.20
2022-09-26T03:11:18.136Z,11.20
2022-09-26T03:16:03.076Z,11.30
2022-09-26T03:20:46.970Z,11.30
2022-09-26T03:25:31.172Z,11.20
2022-09-26T03:30:17.667Z,11.20
2022-09-26T03:35:01.079Z,11.20
2022-09-26T03:39:44.740Z,11.30
2022-09-26T03:44:28.185Z,11.30
2022-09-26T03:49:13.653Z,11.20
2022-09-26T03:53:57.707Z,11.20
2022-09-26T03:58:41.158Z,11.20
2022-09-26T04:03:24.825Z,11.20
2022-09-26T04:08:10.300Z,11.20
2022-09-26T04:12:53.662Z,11.20
2022-09-26T04:17:37.076Z,11.10
2022-09-26T04:22:20.445Z,11.00
2022-09-26T04:27:06.728Z,11.00
2022-09-26T04:31:51.558Z,11.00
2022-09-26T04:36:34.986Z,11.00
2022-09-26T04:41:20.069Z,11.00
2022-09-26T04:46:09.304Z,11.00
2022-09-26T04:50:52.890Z,11.10
2022-09-26T04:55:36.327Z,11.10
2022-09-26T05:00:19.965Z,11.10
2022-09-26T05:05:06.045Z,11.10
2022-09-26T05:09:49.432Z,11.00
2022-09-26T05:14:35.965Z,11.00
2022-09-26T05:19:20.692Z,11.00
2022-09-26T05:24:22.831Z,11.00
2022-09-26T05:29:08.934Z,11.00
2022-09-26T05:33:53.998Z,11.00
2022-09-26T05:38:37.379Z,10.90
2022-09-26T05:43:22.930Z,10.80
2022-09-26T05:48:07.243Z,10.70
2022-09-26T05:52:50.755Z,10.80
2022-09-26T05:57:34.223Z,10.80
2022-09-26T06:02:21.008Z,10.80
2022-09-26T06:07:04.827Z,10.90
2022-09-26T06:11:48.180Z,11.00
2022-09-26T06:16:31.648Z,10.90
2022-09-26T06:21:18.551Z,10.90
2022-09-26T06:26:02.412Z,10.90
2022-09-26T06:30:45.943Z,10.80
2022-09-26T06:35:29.365Z,10.80
2022-09-26T06:40:14.374Z,10.80
2022-09-26T06:44:57.853Z,10.80
2022-09-26T06:49:41.301Z,10.90
2022-09-26T06:54:24.843Z,10.90
2022-09-26T06:59:09.879Z,10.90
2022-09-26T07:03:54.421Z,10.80
2022-09-26T07:09:01.039Z,10.90
2022-09-26T07:13:41.898Z,10.90
2022-09-26T07:18:27.265Z,11.00
2022-09-26T07:23:12.651Z,11.10
2022-09-26T07:27:56.094Z,11.30
2022-09-26T07:32:39.551Z,11.50
2022-09-26T07:37:24.410Z,11.80
2022-09-26T07:42:08.838Z,12.20
2022-09-26T07:47:09.427Z,12.50
2022-09-26T07:51:56.133Z,12.70
2022-09-26T07:56:42.166Z,13.00
2022-09-26T08:01:26.141Z,13.30
2022-09-26T08:06:10.587Z,13.00
2022-09-26T08:10:54.028Z,12.60
2022-09-26T08:15:38.969Z,12.10
2022-09-26T08:20:22.511Z,12.00
2022-09-26T08:25:07.423Z,11.70
2022-09-26T08:29:51.243Z,11.80
2022-09-26T08:34:36.806Z,11.80
2022-09-26T08:39:20.173Z,11.80
2022-09-26T08:44:17.138Z,11.60
2022-09-26T08:49:39.229Z,11.50
2022-09-26T08:54:35.348Z,11.60
2022-09-26T08:59:26.999Z,11.70
2022-09-26T09:04:16.047Z,11.60
2022-09-26T09:09:00.163Z,11.80
2022-09-26T09:13:58.292Z,11.90
2022-09-26T09:18:49.097Z,12.10
2022-09-26T09:23:47.938Z,11.90
2022-09-26T09:28:44.036Z,11.70
2022-09-26T09:33:33.420Z,11.70
2022-09-26T09:38:19.392Z,11.80
2022-09-26T09:43:06.492Z,11.80
2022-09-26T09:47:49.934Z,12.10
2022-09-26T09:52:57.353Z,12.30
2022-09-26T09:57:57.864Z,12.50
2022-09-26T10:02:48.448Z,12.30
2022-09-26T10:07:31.996Z,12.10
2022-09-26T10:12:20.246Z,12.50
2022-09-26T10:17:19.716Z,12.50
2022-09-26T10:22:03.184Z,12.70
2022-09-26T10:26:47.394Z,13.10
2022-09-26T10:31:42.217Z,13.50
2022-09-26T10:36:31.912Z,14.10
2022-09-26T10:41:25.239Z,14.60
2022-09-26T10:46:12.212Z,14.70
2022-09-26T10:51:02.038Z,14.30
2022-09-26T10:55:49.766Z,15.00
2022-09-26T11:00:40.264Z,15.20
2022-09-26T11:05:43.495Z,16.30
2022-09-26T11:10:34.255Z,18.10
2022-09-26T11:15:17.715Z,18.50
2022-09-26T11:20:04.123Z,19.90
2022-09-26T11:24:52.904Z,21.20
2022-09-26T11:29:45.141Z,21.20
2022-09-26T11:34:32.513Z,21.20
2022-09-26T11:39:33.699Z,21.30
2022-09-26T11:44:38.252Z,22.40
2022-09-26T11:49:39.799Z,25.10
2022-09-26T11:54:51.555Z,24.30
2022-09-26T11:59:55.621Z,25.50
2022-09-26T12:05:05.934Z,23.80
2022-09-26T12:10:19.676Z,22.90
2022-09-26T12:15:15.104Z,22.40
2022-09-26T12:20:15.096Z,21.80
2022-09-26T12:25:24.335Z,21.10
2022-09-26T12:30:12.658Z,21.00
2022-09-26T12:35:15.005Z,21.80
2022-09-26T12:40:14.753Z,21.70
2022-09-26T12:45:35.460Z,21.30
2022-09-26T12:50:31.603Z,22.80
2022-09-26T12:55:24.530Z,22.40
2022-09-26T13:00:20.919Z,22.70
2022-09-26T13:05:28.004Z,22.70
2022-09-26T13:10:28.151Z,22.80
2022-09-26T13:15:24.406Z,21.60
2022-09-26T13:20:15.243Z,21.30
2022-09-26T13:25:08.132Z,21.10
2022-09-26T13:30:00.742Z,19.40
2022-09-26T13:34:48.010Z,19.50
2022-09-26T13:39:41.994Z,21.50
2022-09-26T13:44:40.761Z,21.90
2022-09-26T13:49:34.881Z,21.20
2022-09-26T13:54:27.199Z,21.20
2022-09-26T13:59:42.476Z,21.00
2022-09-26T14:04:36.138Z,21.90
2022-09-26T14:09:28.828Z,22.80
2022-09-26T14:14:39.889Z,25.20
2022-09-26T14:19:31.584Z,27.00
2022-09-26T14:24:47.368Z,28.00
2022-09-26T14:29:38.419Z,29.50
2022-09-26T14:34:24.382Z,30.00
2022-09-26T14:39:08.156Z,27.00
2022-09-26T14:43:53.574Z,23.70
2022-09-26T14:48:39.619Z,20.30
2022-09-26T14:53:34.574Z,19.20
2022-09-26T14:58:18.943Z,18.50
2022-09-26T15:03:07.494Z,18.50
2022-09-26T15:07:53.267Z,18.10
2022-09-26T15:12:42.773Z,17.70
2022-09-26T15:17:30.548Z,17.60
2022-09-26T15:22:19.719Z,17.30
2022-09-26T15:27:10.377Z,17.30
2022-09-26T15:31:56.362Z,16.90
2022-09-26T15:36:43.015Z,16.60
2022-09-26T15:41:45.268Z,16.30
2022-09-26T15:46:29.421Z,16.10
2022-09-26T15:51:19.632Z,15.80
2022-09-26T15:56:06.801Z,15.70
2022-09-26T16:00:54.292Z,15.60
2022-09-26T16:05:37.908Z,15.40
2022-09-26T16:10:25.378Z,15.20
2022-09-26T16:15:17.096Z,15.10
2022-09-26T16:20:06.375Z,14.90
2022-09-26T16:24:51.835Z,14.60
2022-09-26T16:29:38.486Z,14.50
2022-09-26T16:34:23.609Z,14.50
2022-09-26T16:39:20.477Z,14.40
2022-09-26T16:44:08.696Z,14.30
2022-09-26T16:48:56.147Z,14.20
2022-09-26T16:53:39.557Z,14.10
2022-09-26T16:58:25.984Z,13.90
2022-09-26T17:03:22.200Z,13.90
2022-09-26T17:08:06.394Z,13.80
2022-09-26T17:12:51.647Z,13.50
2022-09-26T17:17:36.774Z,13.40
2022-09-26T17:22:21.898Z,13.10
2022-09-26T17:27:08.865Z,13.10
2022-09-26T17:31:54.158Z,13.00
2022-09-26T17:36:39.344Z,12.80
2022-09-26T17:41:27.358Z,12.90
2022-09-26T17:46:15.370Z,12.80
2022-09-26T17:51:02.338Z,12.80
2022-09-26T17:55:47.345Z,12.70
2022-09-26T18:00:38.995Z,12.60
2022-09-26T18:05:25.567Z,12.60
2022-09-26T18:10:19.507Z,12.50
2022-09-26T18:15:05.479Z,12.60
2022-09-26T18:19:50.761Z,12.50
2022-09-26T18:24:35.236Z,12.50
2022-09-26T18:29:25.324Z,12.50
2022-09-26T18:34:16.446Z,12.50
2022-09-26T18:39:00.197Z,12.40
2022-09-26T18:43:44.204Z,12.60
2022-09-26T18:48:32.170Z,12.50
2022-09-26T18:53:20.077Z,12.50
2022-09-26T18:58:21.055Z,12.40
2022-09-26T19:03:05.152Z,12.30
2022-09-26T19:07:49.109Z,12.20
2022-09-26T19:12:39.153Z,12.30
2022-09-26T19:17:22.856Z,12.20
2022-09-26T19:22:10.556Z,12.20
2022-09-26T19:26:58.727Z,12.20
2022-09-26T19:31:44.412Z,12.20
2022-09-26T19:36:27.805Z,12.20
2022-09-26T19:41:11.452Z,12.20
2022-09-26T19:45:56.153Z,12.20
2022-09-26T19:50:42.807Z,12.20
2022-09-26T19:55:28.877Z,12.20
2022-09-26T20:00:13.907Z,12.20
2022-09-26T20:04:57.398Z,12.10
2022-09-26T20:09:42.455Z,12.10
2022-09-26T20:14:26.254Z,12.00
2022-09-26T20:19:17.630Z,12.00
2022-09-26T20:24:02.124Z,12.10
2022-09-26T20:28:47.009Z,12.10
2022-09-26T20:33:30.521Z,12.10
2022-09-26T20:38:19.760Z,12.00
2022-09-26T20:43:08.200Z,11.90
2022-09-26T20:47:53.002Z,11.90
2022-09-26T20:52:36.644Z,11.80
2022-09-26T20:57:22.491Z,11.90
2022-09-26T21:02:30.254Z,11.90
2022-09-26T21:07:17.399Z,11.90
2022-09-26T21:12:02.798Z,11.90
2022-09-26T21:16:51.588Z,11.80
2022-09-26T21:21:36.306Z,11.80
2022-09-26T21:26:23.059Z,11.70
2022-09-26T21:31:08.336Z,11.70
2022-09-26T21:35:53.061Z,11.60
2022-09-26T21:40:41.263Z,11.60
2022-09-26T21:45:27.920Z,11.60
2022-09-26T21:50:13.347Z,11.60
2022-09-26T21:55:00.264Z,11.60
2022-09-26T21:59:45.068Z,11.70
2022-09-26T22:04:30.104Z,11.70
2022-09-26T22:09:13.587Z,11.70
2022-09-26T22:13:57.025Z,11.70
2022-09-26T22:18:41.288Z,11.70
2022-09-26T22:23:26.227Z,11.60
2022-09-26T22:28:09.634Z,11.70
2022-09-26T22:32:53.061Z,11.70
2022-09-26T22:37:36.482Z,11.70
2022-09-26T22:42:21.263Z,11.60
2022-09-26T22:47:04.855Z,11.60
2022-09-26T22:51:48.338Z,11.70
2022-09-26T22:56:32.178Z,11.80
2022-09-26T23:01:19.660Z,11.90
2022-09-26T23:06:03.528Z,11.90
2022-09-26T23:10:50.310Z,12.00
2022-09-26T23:15:34.240Z,12.00
2022-09-26T23:20:19.130Z,11.80
2022-09-26T23:25:02.533Z,11.70
2022-09-26T23:29:45.940Z,11.60
2022-09-26T23:34:29.434Z,11.60
2022-09-26T23:39:14.461Z,11.50
2022-09-26T23:43:58.083Z,11.40
2022-09-26T23:48:41.726Z,11.30
2022-09-26T23:53:25.307Z,11.30
2022-09-26T23:58:10.701Z,11.30
